Time;durP1;ratioP1;P1;durP2;ratioP2;P2;SDS_P1;SDS_P2;PMS_P1;PMS_P2;Temp;Humidity;BMP_temperature;BMP_pressure;BME280_temperature;BME280_humidity;BME280_pressure;Samples;Min_cycle;Max_cycle;Signal;HPM_P1;HPM_P2
2022/06/03 00:01:21;;;;;;;5.63;4.75;;;7.50;99.90;;;;;;5069200;28;20024;-47
2022/06/03 00:04:06;;;;;;;9.00;4.40;;;7.50;99.90;;;;;;4985933;28;20030;-51
2022/06/03 00:06:40;;;;;;;5.75;4.32;;;7.40;99.90;;;;;;5062235;28;20029;-47
2022/06/03 00:09:39;;;;;;;6.53;4.28;;;7.50;99.90;;;;;;5072761;28;20043;-47
2022/06/03 00:12:29;;;;;;;5.13;4.45;;;7.40;99.90;;;;;;5068392;28;20410;-47
2022/06/03 00:15:09;;;;;;;8.90;4.30;;;7.30;99.90;;;;;;5072219;28;20107;-47
2022/06/03 00:17:55;;;;;;;5.63;4.40;;;7.30;99.90;;;;;;5072830;28;20082;-47
2022/06/03 00:20:51;;;;;;;5.50;4.88;;;7.30;99.90;;;;;;5072450;28;20355;-47
2022/06/03 00:23:35;;;;;;;8.68;4.88;;;7.30;99.90;;;;;;5070966;28;20082;-50
2022/06/03 00:26:26;;;;;;;7.18;4.47;;;7.20;99.90;;;;;;5072456;28;20029;-48
2022/06/03 00:29:10;;;;;;;4.60;4.20;;;7.10;99.90;;;;;;5069420;28;20510;-49
2022/06/03 00:32:04;;;;;;;5.53;4.57;;;7.10;99.90;;;;;;5072200;28;20020;-50
2022/06/03 00:35:06;;;;;;;5.32;4.82;;;7.10;99.90;;;;;;5066324;28;20497;-48
2022/06/03 00:37:35;;;;;;;9.48;5.03;;;7.00;99.90;;;;;;5071874;28;20029;-47
2022/06/03 00:40:35;;;;;;;6.55;4.45;;;6.90;99.90;;;;;;5054228;28;20020;-47
2022/06/03 00:43:35;;;;;;;6.18;5.10;;;6.90;99.90;;;;;;5070184;28;20033;-49
2022/06/03 00:46:20;;;;;;;5.72;4.70;;;6.90;99.90;;;;;;5053861;28;20044;-48
2022/06/03 00:48:49;;;;;;;6.63;5.43;;;6.90;99.90;;;;;;5072108;28;20021;-51
2022/06/03 00:51:49;;;;;;;6.05;5.38;;;6.80;99.90;;;;;;5063463;28;20021;-48
2022/06/03 00:54:20;;;;;;;5.78;5.10;;;6.80;99.90;;;;;;5068968;28;20479;-48
2022/06/03 00:57:10;;;;;;;9.68;5.40;;;6.70;99.90;;;;;;5072127;28;20021;-48
2022/06/03 00:59:35;;;;;;;5.53;5.03;;;6.70;99.90;;;;;;5069111;28;20025;-49
2022/06/03 01:02:39;;;;;;;6.63;5.63;;;6.70;99.90;;;;;;5069343;28;20032;-48
2022/06/03 01:05:31;;;;;;;5.95;4.60;;;6.70;99.90;;;;;;5069654;28;20032;-47
2022/06/03 01:08:45;;;;;;;7.82;5.65;;;6.60;99.90;;;;;;5071909;28;20024;-49
2022/06/03 01:11:42;;;;;;;7.65;5.32;;;6.60;99.90;;;;;;5071619;28;20031;-51
2022/06/03 01:14:17;;;;;;;6.57;5.07;;;6.50;99.90;;;;;;5070829;28;20031;-47
2022/06/03 01:17:18;;;;;;;8.20;5.43;;;6.50;99.90;;;;;;5067353;28;20016;-47
2022/06/03 01:19:46;;;;;;;6.20;5.60;;;6.40;99.90;;;;;;5049356;28;20166;-52
2022/06/03 01:22:30;;;;;;;7.57;5.90;;;6.40;99.90;;;;;;5070827;28;20017;-49
2022/06/03 01:25:05;;;;;;;6.88;5.50;;;6.40;99.90;;;;;;5071445;28;20012;-53
2022/06/03 01:27:32;;;;;;;6.05;4.90;;;6.40;99.90;;;;;;5071560;28;20025;-52
2022/06/03 01:30:27;;;;;;;7.03;5.10;;;6.30;99.90;;;;;;5071366;28;20128;-52
2022/06/03 01:33:05;;;;;;;6.03;4.82;;;6.30;99.90;;;;;;5053126;28;20067;-50
2022/06/03 01:36:04;;;;;;;6.93;5.28;;;6.30;99.90;;;;;;5068198;28;20024;-50
2022/06/03 01:38:55;;;;;;;6.78;5.15;;;6.30;99.90;;;;;;5065255;28;20543;-50
2022/06/03 01:41:29;;;;;;;6.53;5.15;;;6.30;99.90;;;;;;5071096;28;20039;-48
2022/06/03 01:44:22;;;;;;;5.75;5.25;;;6.20;99.90;;;;;;5070868;28;20024;-50
2022/06/03 01:47:25;;;;;;;5.97;5.30;;;6.20;99.90;;;;;;5066040;28;20025;-49
2022/06/03 01:50:22;;;;;;;6.70;4.85;;;6.20;99.90;;;;;;5071143;28;20082;-50
2022/06/03 01:53:08;;;;;;;;;;;6.20;99.90;;;;;;5071391;28;20044;-52
2022/06/03 01:55:46;;;;;;;7.10;5.35;;;6.20;99.90;;;;;;5039172;28;19991;-49
2022/06/03 01:58:20;;;;;;;5.45;4.80;;;6.10;99.90;;;;;;5070914;28;20481;-52
2022/06/03 02:01:19;;;;;;;7.30;5.20;;;6.10;99.90;;;;;;5070719;28;20032;-51
2022/06/03 02:04:05;;;;;;;6.72;5.50;;;6.10;99.90;;;;;;5066620;28;20033;-52
2022/06/03 02:07:08;;;;;;;6.28;4.30;;;6.00;99.90;;;;;;5064883;28;20119;-48
2022/06/03 02:10:12;;;;;;;6.15;5.13;;;6.00;99.90;;;;;;5065382;28;20028;-49
2022/06/03 02:12:53;;;;;;;5.97;5.40;;;6.00;99.90;;;;;;5051163;28;20052;-54
2022/06/03 02:15:46;;;;;;;11.88;4.97;;;5.90;99.90;;;;;;5063303;28;20012;-50
2022/06/03 02:18:33;;;;;;;5.70;4.47;;;5.90;99.90;;;;;;5070242;28;20020;-48
2022/06/03 02:21:07;;;;;;;8.98;5.00;;;5.90;99.90;;;;;;5069607;28;20024;-48
2022/06/03 02:24:16;;;;;;;6.47;5.22;;;5.90;99.90;;;;;;5070315;28;20020;-47
2022/06/03 02:27:20;;;;;;;6.43;5.53;;;5.90;99.90;;;;;;5066096;28;20028;-52
2022/06/03 02:30:25;;;;;;;8.48;5.00;;;5.80;99.90;;;;;;5069781;28;20025;-50
2022/06/03 02:33:14;;;;;;;11.32;4.82;;;5.80;99.90;;;;;;5066773;28;20024;-52
2022/06/03 02:35:46;;;;;;;5.78;5.18;;;5.80;99.90;;;;;;5069853;28;20074;-49
2022/06/03 02:38:39;;;;;;;6.05;5.40;;;5.70;99.90;;;;;;5069775;28;20027;-53
2022/06/03 02:41:14;;;;;;;8.88;5.72;;;5.70;99.90;;;;;;5070007;28;20071;-50
2022/06/03 02:43:52;;;;;;;6.70;5.15;;;5.70;99.90;;;;;;5069890;28;20016;-50
2022/06/03 02:47:05;;;;;;;6.38;5.70;;;5.70;99.90;;;;;;5065495;28;20020;-53
2022/06/03 02:49:34;;;;;;;5.90;5.25;;;5.70;99.90;;;;;;5063966;28;20024;-50
2022/06/03 02:52:27;;;;;;;8.20;5.20;;;5.70;99.90;;;;;;5069545;28;20025;-50
2022/06/03 02:55:23;;;;;;;6.38;5.65;;;5.60;99.90;;;;;;5069567;28;20099;-52
2022/06/03 02:57:57;;;;;;;8.48;6.30;;;5.70;99.90;;;;;;5069799;28;20025;-47
2022/06/03 03:00:53;;;;;;;5.82;5.18;;;5.60;99.90;;;;;;5069812;28;20403;-48
2022/06/03 03:03:59;;;;;;;6.43;5.47;;;5.70;99.90;;;;;;5064157;28;20056;-47
2022/06/03 03:06:56;;;;;;;9.27;6.13;;;5.60;99.90;;;;;;5063334;28;20032;-46
2022/06/03 03:09:55;;;;;;;8.30;6.38;;;5.60;99.90;;;;;;5069801;28;20020;-46
2022/06/03 03:12:48;;;;;;;5.78;5.28;;;5.60;99.90;;;;;;5068507;28;20027;-46
2022/06/03 03:15:37;;;;;;;7.00;5.85;;;5.60;99.90;;;;;;5048064;28;20489;-46
2022/06/03 03:18:32;;;;;;;7.82;6.05;;;5.60;99.90;;;;;;5069763;28;20131;-47
2022/06/03 03:21:04;;;;;;;8.02;6.38;;;5.60;99.90;;;;;;5051160;28;20055;-48
2022/06/03 03:23:45;;;;;;;9.93;6.93;;;5.60;99.90;;;;;;5069052;28;20036;-47
2022/06/03 03:26:33;;;;;;;8.75;6.20;;;5.60;99.90;;;;;;5051020;28;20482;-47
2022/06/03 03:29:18;;;;;;;9.35;6.03;;;5.60;99.90;;;;;;5055668;28;20131;-50
2022/06/03 03:32:09;;;;;;;11.63;6.40;;;5.60;99.90;;;;;;5069212;28;20126;-52
2022/06/03 03:35:05;;;;;;;10.88;7.18;;;5.60;99.90;;;;;;5063959;28;20016;-52
2022/06/03 03:37:47;;;;;;;6.85;5.45;;;5.60;99.90;;;;;;5065616;28;20025;-49
2022/06/03 03:40:40;;;;;;;8.07;5.28;;;5.60;99.90;;;;;;5073647;28;20032;-51
2022/06/03 03:43:24;;;;;;;10.35;6.60;;;5.60;99.90;;;;;;5072203;28;20016;-48
2022/06/03 03:46:14;;;;;;;9.00;6.38;;;5.60;99.90;;;;;;5073267;28;20055;-48
2022/06/03 03:49:09;;;;;;;9.15;6.43;;;5.70;99.90;;;;;;5073411;28;20446;-49
2022/06/03 03:52:01;;;;;;;11.85;6.78;;;5.70;99.90;;;;;;5067570;28;20024;-47
2022/06/03 03:54:45;;;;;;;11.90;7.00;;;5.60;99.90;;;;;;5067056;28;20637;-47
2022/06/03 03:57:17;;;;;;;10.07;7.25;;;5.70;99.90;;;;;;5072726;28;20025;-46
2022/06/03 04:00:04;;;;;;;9.38;6.43;;;5.60;99.90;;;;;;5073147;28;20078;-48
2022/06/03 04:03:10;;;;;;;8.82;6.88;;;5.70;99.90;;;;;;5066791;28;20016;-47
2022/06/03 04:05:51;;;;;;;8.75;6.05;;;5.70;99.90;;;;;;5072078;28;20029;-47
2022/06/03 04:08:36;;;;;;;8.93;7.80;;;5.80;99.90;;;;;;5066492;28;20028;-47
2022/06/03 04:11:39;;;;;;;9.27;6.60;;;5.80;99.90;;;;;;5070925;28;20408;-48
2022/06/03 04:14:04;;;;;;;9.20;6.60;;;5.80;99.90;;;;;;5072266;28;20013;-46
2022/06/03 04:17:17;;;;;;;8.80;6.35;;;5.80;99.90;;;;;;5072643;28;20470;-46
2022/06/03 04:20:11;;;;;;;9.63;5.88;;;5.80;99.90;;;;;;5068509;28;20024;-47
2022/06/03 04:23:01;;;;;;;6.55;4.85;;;5.80;99.90;;;;;;5071852;28;20020;-50
2022/06/03 04:25:44;;;;;;;6.72;5.30;;;5.80;99.90;;;;;;5067176;28;20452;-49
2022/06/03 04:28:19;;;;;;;7.43;5.78;;;5.90;99.90;;;;;;5072497;28;20021;-47
2022/06/03 04:31:02;;;;;;;7.43;6.60;;;5.90;99.90;;;;;;5071966;28;20021;-46
2022/06/03 04:33:51;;;;;;;9.15;6.43;;;5.90;99.90;;;;;;5065672;28;20016;-46
2022/06/03 04:36:16;;;;;;;10.23;7.18;;;6.00;99.90;;;;;;5064213;28;20386;-46
2022/06/03 04:39:12;;;;;;;9.25;6.95;;;6.00;99.90;;;;;;5071988;28;20099;-47
2022/06/03 04:41:53;;;;;;;8.38;6.90;;;6.10;99.90;;;;;;5066770;28;20029;-50
2022/06/03 04:44:33;;;;;;;9.63;7.68;;;6.10;99.90;;;;;;5068039;28;20020;-48
2022/06/03 04:47:23;;;;;;;10.40;8.52;;;6.20;99.90;;;;;;5072134;28;20055;-49
2022/06/03 04:50:16;;;;;;;11.02;8.90;;;6.30;99.90;;;;;;5071345;28;20035;-46
2022/06/03 04:53:15;;;;;;;10.82;8.80;;;6.40;99.90;;;;;;5067007;28;20488;-48
2022/06/03 04:56:21;;;;;;;13.57;9.98;;;6.50;99.90;;;;;;5067506;28;20074;-46
2022/06/03 04:58:58;;;;;;;14.93;10.95;;;6.70;99.90;;;;;;5071367;28;20440;-46
2022/06/03 05:01:58;;;;;;;13.48;11.82;;;6.80;99.90;;;;;;5065063;28;20099;-50
2022/06/03 05:05:02;;;;;;;17.02;11.85;;;6.90;99.90;;;;;;5064697;28;20081;-50
2022/06/03 05:08:05;;;;;;;17.45;11.85;;;7.10;99.90;;;;;;5033755;28;20028;-52
2022/06/03 05:10:52;;;;;;;18.13;13.00;;;7.20;99.90;;;;;;5069333;28;20028;-53
2022/06/03 05:13:52;;;;;;;18.40;12.57;;;7.30;99.90;;;;;;5064316;28;20020;-51
2022/06/03 05:16:37;;;;;;;21.92;13.10;;;7.40;99.90;;;;;;5003869;28;20031;-51
2022/06/03 05:19:08;;;;;;;22.02;13.75;;;7.50;99.90;;;;;;5053532;28;20013;-48
2022/06/03 05:22:10;;;;;;;23.52;15.05;;;7.60;99.90;;;;;;5071226;28;20554;-47
2022/06/03 05:25:20;;;;;;;24.33;14.27;;;7.90;99.90;;;;;;5066244;28;20021;-50
2022/06/03 05:28:07;;;;;;;23.77;15.45;;;8.10;99.90;;;;;;5071186;28;20111;-50
2022/06/03 05:30:42;;;;;;;24.42;16.02;;;8.20;99.90;;;;;;5065945;28;20025;-51
2022/06/03 05:33:33;;;;;;;23.23;14.07;;;8.30;99.90;;;;;;5071289;28;20103;-47
2022/06/03 05:36:24;;;;;;;21.23;14.35;;;8.40;99.90;;;;;;5019528;28;20035;-48
2022/06/03 05:39:11;;;;;;;31.00;18.17;;;8.60;99.90;;;;;;5071110;28;20028;-47
2022/06/03 05:42:29;;;;;;;28.45;18.33;;;8.80;99.90;;;;;;5047780;28;20021;-49
2022/06/03 05:45:12;;;;;;;29.98;17.95;;;9.10;99.90;;;;;;5050221;28;20037;-52
2022/06/03 05:48:05;;;;;;;26.13;18.17;;;9.50;99.90;;;;;;5070934;28;20060;-49
2022/06/03 05:50:55;;;;;;;24.83;17.08;;;9.80;99.90;;;;;;5065210;28;20021;-52
2022/06/03 05:53:39;;;;;;;25.88;17.77;;;10.00;99.90;;;;;;5063318;28;20082;-51
2022/06/03 05:56:32;;;;;;;29.50;20.05;;;10.30;99.90;;;;;;5070910;28;20390;-52
2022/06/03 05:59:38;;;;;;;24.02;16.88;;;10.60;99.90;;;;;;5068533;28;20021;-51
2022/06/03 06:02:33;;;;;;;10.85;7.75;;;10.80;99.90;;;;;;5051606;28;20055;-51
2022/06/03 06:05:17;;;;;;;6.28;5.68;;;11.00;99.90;;;;;;5057004;28;20388;-48
2022/06/03 06:08:07;;;;;;;7.47;5.40;;;11.20;99.90;;;;;;5070846;28;20478;-50
2022/06/03 06:11:03;;;;;;;10.18;6.43;;;11.40;99.90;;;;;;5069070;28;20028;-53
2022/06/03 06:13:47;;;;;;;9.25;5.25;;;11.60;99.90;;;;;;5046682;28;20021;-52
2022/06/03 06:16:26;;;;;;;7.10;4.93;;;11.80;99.90;;;;;;5070348;28;20044;-50
2022/06/03 06:19:05;;;;;;;5.10;4.60;;;12.00;99.90;;;;;;5070436;28;20069;-49
2022/06/03 06:21:40;;;;;;;8.02;5.40;;;12.10;99.90;;;;;;5069872;28;20055;-50
2022/06/03 06:24:27;;;;;;;5.75;4.38;;;12.30;99.90;;;;;;5070308;28;20031;-49
2022/06/03 06:27:30;;;;;;;7.47;4.63;;;12.60;99.90;;;;;;5070377;28;20029;-50
2022/06/03 06:30:13;;;;;;;9.07;3.70;;;12.90;99.90;;;;;;5067613;28;20094;-48
2022/06/03 06:32:51;;;;;;;4.95;3.83;;;13.20;99.90;;;;;;5069885;28;20017;-48
2022/06/03 06:36:10;;;;;;;4.47;3.60;;;13.50;99.90;;;;;;5062505;28;20013;-48
2022/06/03 06:38:38;;;;;;;4.65;3.38;;;13.50;99.90;;;;;;5065098;28;20020;-47
2022/06/03 06:41:46;;;;;;;4.40;4.00;;;13.50;99.90;;;;;;5070045;28;20558;-47
2022/06/03 06:44:35;;;;;;;5.07;4.50;;;13.50;99.90;;;;;;4968865;28;20038;-47
2022/06/03 06:47:29;;;;;;;7.18;4.05;;;13.50;99.90;;;;;;5046240;28;20380;-47
2022/06/03 06:50:13;;;;;;;6.65;3.72;;;13.70;99.90;;;;;;5049812;28;20016;-47
2022/06/03 06:53:04;;;;;;;6.82;3.67;;;13.90;99.90;;;;;;5069454;28;20418;-50
2022/06/03 06:56:01;;;;;;;5.93;3.60;;;14.00;99.90;;;;;;5063932;28;20475;-50
2022/06/03 06:58:33;;;;;;;5.35;3.25;;;14.40;99.90;;;;;;5066372;28;20024;-47
2022/06/03 07:01:03;;;;;;;4.68;3.50;;;14.80;99.90;;;;;;5052011;28;20390;-48
2022/06/03 07:03:41;;;;;;;6.78;3.35;;;15.10;99.90;;;;;;5069608;28;20031;-48
2022/06/03 07:06:37;;;;;;;6.50;3.42;;;15.40;99.90;;;;;;5069065;28;20032;-49
2022/06/03 07:09:30;;;;;;;2.67;2.47;;;15.50;99.90;;;;;;5050507;28;20040;-48
2022/06/03 07:12:15;;;;;;;3.35;2.60;;;15.60;99.90;;;;;;5067490;28;20033;-50
2022/06/03 07:14:55;;;;;;;5.70;2.83;;;15.90;99.90;;;;;;5051721;28;20052;-49
2022/06/03 07:21:22;;;;;;;5.53;2.53;;;16.30;99.90;;;;;;5066330;28;20028;-48
2022/06/03 07:23:56;;;;;;;4.80;2.65;;;16.70;99.90;;;;;;5065984;28;20028;-49
2022/06/03 07:26:37;;;;;;;4.90;2.63;;;17.00;99.90;;;;;;5062797;28;20035;-48
2022/06/03 07:29:09;;;;;;;2.60;2.38;;;17.10;99.90;;;;;;5069536;28;20027;-53
2022/06/03 07:31:42;;;;;;;3.70;2.05;;;17.20;99.90;;;;;;5069237;28;20080;-51
2022/06/03 07:34:21;;;;;;;5.38;2.45;;;17.50;99.90;;;;;;5069330;28;20078;-53
2022/06/03 07:37:16;;;;;;;6.25;2.70;;;17.60;99.90;;;;;;5069476;28;20056;-52
2022/06/03 07:39:52;;;;;;;3.75;2.50;;;17.50;99.90;;;;;;5060321;28;20029;-50
2022/06/03 07:42:20;;;;;;;5.13;3.40;;;17.60;99.90;;;;;;5062278;28;20081;-50
2022/06/03 07:45:10;;;;;;;11.10;3.00;;;17.80;99.90;;;;;;5069181;28;20048;-52
2022/06/03 07:47:36;;;;;;;4.22;2.80;;;18.10;99.90;;;;;;5064211;28;20043;-52
2022/06/03 07:50:05;;;;;;;3.30;2.45;;;18.30;99.90;;;;;;5069406;28;20122;-51
2022/06/03 07:52:32;;;;;;;6.85;2.75;;;18.50;99.90;;;;;;5069144;28;20027;-50
2022/06/03 07:54:59;;;;;;;4.50;2.88;;;18.60;99.90;;;;;;5051029;28;20147;-52
2022/06/03 07:57:27;;;;;;;4.45;3.20;;;18.60;99.90;;;;;;5069499;28;20017;-48
2022/06/03 08:00:01;;;;;;;2.97;2.17;;;18.60;99.90;;;;;;5069499;28;20095;-51
2022/06/03 08:02:27;;;;;;;3.45;2.22;;;18.90;99.90;;;;;;5069406;28;20062;-49
2022/06/03 08:05:04;;;;;;;4.18;2.60;;;19.10;99.90;;;;;;5050490;28;20048;-46
2022/06/03 08:13:05;;;;;;;2.55;2.25;;;19.20;99.90;;;;;;5069439;28;20443;-47
2022/06/03 08:15:35;;;;;;;3.35;2.28;;;19.40;99.90;;;;;;5063129;28;20009;-51
2022/06/03 08:18:05;;;;;;;4.07;2.42;;;19.60;99.90;;;;;;5068975;28;20051;-52
2022/06/03 08:20:34;;;;;;;4.72;2.65;;;19.70;99.90;;;;;;5068968;28;20044;-47
2022/06/03 08:23:03;;;;;;;3.03;2.30;;;19.90;99.90;;;;;;5068614;28;20509;-47
2022/06/03 08:25:41;;;;;;;5.68;2.50;;;20.00;99.90;;;;;;5071897;28;20151;-47
2022/06/03 08:28:11;;;;;;;2.85;2.28;;;20.20;99.90;;;;;;5072492;28;20069;-46
2022/06/03 08:30:40;;;;;;;4.57;3.60;;;20.40;99.90;;;;;;5071915;28;20383;-46
2022/06/03 08:33:09;;;;;;;3.47;1.85;;;20.30;99.50;;;;;;5072171;28;20422;-47
2022/06/03 08:35:43;;;;;;;5.18;2.10;;;20.40;97.30;;;;;;5072112;28;20490;-48
2022/06/03 08:38:19;;;;;;;6.18;2.38;;;20.30;99.90;;;;;;5072699;28;20348;-46
2022/06/03 08:41:18;;;;;;;3.15;2.33;;;20.10;97.30;;;;;;5072314;28;20021;-47
2022/06/03 08:44:00;;;;;;;3.33;1.70;;;20.40;99.90;;;;;;5068029;28;20020;-46
2022/06/03 08:46:36;;;;;;;3.72;1.95;;;20.30;98.00;;;;;;5065673;28;20032;-46
2022/06/03 08:49:07;;;;;;;2.50;1.65;;;20.50;99.90;;;;;;5071931;28;20363;-47
2022/06/03 08:51:37;;;;;;;3.13;2.03;;;20.50;99.00;;;;;;5071742;28;20044;-50
2022/06/03 08:54:14;;;;;;;2.28;1.77;;;20.50;95.40;;;;;;5071705;28;20070;-47
2022/06/03 08:56:44;;;;;;;2.10;1.10;;;20.60;94.10;;;;;;5072125;28;20517;-49
2022/06/03 08:59:27;;;;;;;2.17;1.40;;;20.70;91.10;;;;;;5072122;28;20020;-47
2022/06/03 09:02:07;;;;;;;1.50;1.40;;;20.90;91.30;;;;;;5071781;28;20056;-48
2022/06/03 09:04:50;;;;;;;2.45;1.20;;;20.90;90.80;;;;;;5071603;28;20059;-46
2022/06/03 09:07:31;;;;;;;2.05;1.13;;;21.10;92.90;;;;;;5064153;28;20123;-48
2022/06/03 09:10:06;;;;;;;2.25;1.75;;;21.30;92.00;;;;;;5071724;28;20021;-47
2022/06/03 09:12:31;;;;;;;1.48;1.30;;;21.50;87.40;;;;;;5072003;28;20023;-51
2022/06/03 09:15:08;;;;;;;3.55;1.30;;;21.40;90.20;;;;;;5071530;28;20021;-46
2022/06/03 09:17:42;;;;;;;2.58;1.08;;;21.50;90.30;;;;;;5071960;28;20027;-51
2022/06/03 09:20:19;;;;;;;1.63;1.20;;;21.60;90.50;;;;;;5071059;28;20032;-52
2022/06/03 09:22:46;;;;;;;1.95;1.40;;;21.60;90.90;;;;;;5071682;28;20131;-48
2022/06/03 09:25:15;;;;;;;2.85;1.20;;;21.60;87.10;;;;;;5071495;28;20051;-49
2022/06/03 09:27:42;;;;;;;2.30;1.30;;;21.30;91.40;;;;;;5071585;28;20103;-48
2022/06/03 09:30:10;;;;;;;1.73;1.38;;;21.10;92.60;;;;;;5071315;28;20025;-50
2022/06/03 09:32:45;;;;;;;1.88;1.00;;;21.10;92.10;;;;;;5070882;28;20051;-47
2022/06/03 09:35:16;;;;;;;3.28;1.60;;;21.10;93.10;;;;;;5070449;28;20025;-47
2022/06/03 09:37:47;;;;;;;2.67;1.42;;;21.00;91.00;;;;;;5070844;28;20433;-50
2022/06/03 09:40:18;;;;;;;2.95;1.05;;;20.50;86.00;;;;;;5071439;28;20368;-48
2022/06/03 09:43:09;;;;;;;4.05;1.40;;;20.80;90.90;;;;;;5071146;28;20028;-51
2022/06/03 09:45:35;;;;;;;1.77;1.10;;;20.80;90.10;;;;;;5035279;28;20033;-51
2022/06/03 09:48:03;;;;;;;1.63;1.20;;;20.80;91.90;;;;;;5071175;28;20029;-48
2022/06/03 09:50:29;;;;;;;1.38;0.90;;;20.90;83.40;;;;;;5071268;28;20553;-48
2022/06/03 09:53:09;;;;;;;1.10;0.85;;;20.90;80.40;;;;;;5053038;28;20097;-50
2022/06/03 09:55:41;;;;;;;1.38;0.80;;;20.80;73.50;;;;;;5071368;28;20434;-52
2022/06/03 09:58:11;;;;;;;1.95;0.80;;;20.70;72.80;;;;;;5052775;28;20607;-53
2022/06/03 10:00:42;;;;;;;1.65;1.08;;;20.50;72.30;;;;;;5071168;28;20021;-47
2022/06/03 10:03:09;;;;;;;1.70;1.17;;;20.30;76.40;;;;;;5070704;28;20025;-51
2022/06/03 10:05:35;;;;;;;1.27;0.90;;;20.40;86.50;;;;;;5070587;28;20036;-53
2022/06/03 10:08:09;;;;;;;0.95;0.80;;;20.50;81.80;;;;;;5070448;28;20021;-52
2022/06/03 10:13:20;;;;;;;1.38;1.00;;;20.70;83.90;;;;;;5069259;28;20105;-52
2022/06/03 10:15:56;;;;;;;1.75;1.05;;;20.80;89.60;;;;;;5070093;28;20036;-50
2022/06/03 10:18:31;;;;;;;1.27;0.93;;;20.60;84.30;;;;;;5065099;28;20025;-49
2022/06/03 10:21:08;;;;;;;1.83;1.60;;;20.60;88.10;;;;;;5069731;28;20520;-51
2022/06/03 10:23:36;;;;;;;2.78;1.02;;;20.50;82.80;;;;;;5069981;28;20028;-51
2022/06/03 10:26:03;;;;;;;2.47;0.93;;;20.50;88.60;;;;;;5070584;28;20108;-48
2022/06/03 10:28:34;;;;;;;2.65;0.80;;;20.50;85.60;;;;;;5070673;28;20547;-47
2022/06/03 10:31:06;;;;;;;0.85;0.55;;;20.70;85.20;;;;;;5068186;28;20507;-48
2022/06/03 10:33:32;;;;;;;2.70;0.95;;;20.80;83.90;;;;;;5069905;28;20027;-48
2022/06/03 10:36:01;;;;;;;2.65;0.90;;;20.90;84.00;;;;;;5052130;28;20053;-51
2022/06/03 10:38:29;;;;;;;4.38;0.88;;;20.90;77.90;;;;;;5069987;28;20433;-48
2022/06/03 10:40:55;;;;;;;0.93;0.88;;;20.70;76.90;;;;;;5069811;28;20489;-48
2022/06/03 10:43:24;;;;;;;1.15;0.50;;;20.40;80.90;;;;;;5069845;28;20028;-47
2022/06/03 10:45:50;;;;;;;2.00;0.80;;;20.10;76.90;;;;;;5069743;28;20487;-48
2022/06/03 10:48:22;;;;;;;1.42;0.60;;;20.10;80.80;;;;;;5069778;28;20048;-47
2022/06/03 10:50:48;;;;;;;1.17;0.55;;;20.00;74.00;;;;;;5069967;28;20542;-47
2022/06/03 11:01:55;;;;;;;1.30;0.82;;;20.10;71.80;;;;;;5067118;28;20086;-52
2022/06/03 11:04:31;;;;;;;2.08;0.90;;;20.20;71.90;;;;;;5069930;28;20477;-54
2022/06/03 11:07:03;;;;;;;1.55;0.60;;;20.30;74.50;;;;;;5069882;28;20036;-51
2022/06/03 11:09:29;;;;;;;2.05;0.73;;;20.40;79.40;;;;;;5069683;28;20461;-50
2022/06/03 11:12:02;;;;;;;0.75;0.70;;;20.50;72.50;;;;;;5069157;28;20051;-50
2022/06/03 11:14:40;;;;;;;1.00;0.70;;;20.50;74.10;;;;;;5069255;28;20013;-49
2022/06/03 11:17:19;;;;;;;1.75;0.93;;;20.40;74.50;;;;;;5069285;28;20066;-50
2022/06/03 11:19:56;;;;;;;0.75;0.75;;;20.50;73.10;;;;;;5069539;28;20367;-47
2022/06/03 11:22:36;;;;;;;1.27;0.88;;;20.50;74.70;;;;;;5068903;28;20016;-49
2022/06/03 11:25:28;;;;;;;1.73;0.80;;;20.50;78.90;;;;;;5069465;28;20025;-50
2022/06/03 11:28:09;;;;;;;1.88;0.60;;;20.70;77.10;;;;;;5066498;28;20028;-47
2022/06/03 11:30:43;;;;;;;1.10;0.80;;;20.80;68.90;;;;;;5069264;28;20032;-47
2022/06/03 11:33:28;;;;;;;0.70;0.60;;;20.80;72.60;;;;;;5069110;28;20020;-47
2022/06/03 11:36:11;;;;;;;1.10;0.70;;;20.80;78.20;;;;;;5069002;28;20062;-47
2022/06/03 11:38:44;;;;;;;1.98;0.75;;;20.90;76.20;;;;;;5069831;28;20017;-48
2022/06/03 11:41:16;;;;;;;1.95;0.85;;;20.90;70.90;;;;;;5069064;28;20043;-47
2022/06/03 11:44:01;;;;;;;1.17;0.90;;;20.90;71.50;;;;;;5069659;28;20486;-49
2022/06/03 11:46:36;;;;;;;0.70;0.70;;;20.90;72.20;;;;;;5062970;28;20021;-47
2022/06/03 11:49:04;;;;;;;1.05;0.80;;;20.90;70.40;;;;;;5069319;28;20020;-47
2022/06/03 11:51:30;;;;;;;1.13;0.77;;;21.00;70.50;;;;;;5069054;28;20150;-48
2022/06/03 11:53:58;;;;;;;3.00;1.20;;;20.90;68.90;;;;;;5069357;28;20027;-48
2022/06/03 11:56:28;;;;;;;0.85;0.82;;;21.00;67.80;;;;;;5069112;28;20046;-51
2022/06/03 11:59:09;;;;;;;0.98;0.80;;;20.80;68.00;;;;;;5051876;28;20510;-50
2022/06/03 12:01:50;;;;;;;1.30;1.00;;;20.60;69.00;;;;;;5067597;28;20024;-52
2022/06/03 12:04:42;;;;;;;0.63;0.63;;;20.60;68.00;;;;;;5067323;28;20048;-52
2022/06/03 12:07:16;;;;;;;1.58;0.70;;;20.60;68.00;;;;;;5072944;28;20029;-52
2022/06/03 12:09:56;;;;;;;1.38;1.00;;;20.80;72.00;;;;;;5054990;28;20031;-51
2022/06/03 12:15:31;;;;;;;4.78;0.80;;;21.00;68.20;;;;;;5067278;28;20135;-51
2022/06/03 12:18:06;;;;;;;1.23;0.93;;;21.10;69.50;;;;;;5073310;28;20711;-55
2022/06/03 12:20:31;;;;;;;1.60;0.90;;;21.00;67.40;;;;;;5072542;28;20074;-52
2022/06/03 12:23:12;;;;;;;0.98;0.75;;;21.00;65.30;;;;;;5072385;28;20028;-49
2022/06/03 12:25:40;;;;;;;0.60;0.55;;;21.00;66.10;;;;;;5071725;28;20028;-50
2022/06/03 12:28:33;;;;;;;0.60;0.50;;;21.00;68.20;;;;;;5072386;28;20036;-54
2022/06/03 12:31:08;;;;;;;1.67;0.80;;;21.00;65.00;;;;;;5069743;28;20094;-52
2022/06/03 12:33:48;;;;;;;1.65;0.82;;;20.90;66.40;;;;;;5072618;28;20020;-48
2022/06/03 12:36:45;;;;;;;1.67;0.95;;;21.00;65.40;;;;;;5064324;28;20017;-52
2022/06/03 12:39:23;;;;;;;;;;;21.10;66.40;;;;;;5072902;28;20017;-54
2022/06/03 12:41:48;;;;;;;1.60;0.80;;;21.20;66.20;;;;;;5072172;28;19940;-50
2022/06/03 12:44:55;;;;;;;0.82;0.77;;;21.10;67.20;;;;;;5072017;28;20146;-55
2022/06/03 12:47:24;;;;;;;1.25;1.08;;;21.20;68.50;;;;;;5027486;28;20036;-54
2022/06/03 12:50:09;;;;;;;1.25;0.80;;;21.30;67.70;;;;;;5072359;28;20032;-50
2022/06/03 12:52:38;;;;;;;1.00;0.90;;;21.30;63.90;;;;;;5072023;28;20021;-48
2022/06/03 12:55:23;;;;;;;0.80;0.80;;;21.20;65.00;;;;;;5072135;28;20111;-52
2022/06/03 12:57:55;;;;;;;1.20;0.70;;;21.20;65.00;;;;;;5072039;28;20487;-52
2022/06/03 13:00:21;;;;;;;1.45;0.95;;;21.20;65.30;;;;;;5064910;28;20063;-50
2022/06/03 13:02:57;;;;;;;1.58;0.80;;;21.30;64.70;;;;;;5071833;28;20070;-55
2022/06/03 13:05:46;;;;;;;4.25;1.10;;;21.30;66.80;;;;;;5064896;28;20032;-50
2022/06/03 13:08:27;;;;;;;1.00;0.80;;;21.30;68.40;;;;;;5070248;28;20029;-48
2022/06/03 13:11:31;;;;;;;1.50;0.80;;;21.50;69.20;;;;;;5071676;28;20020;-48
2022/06/03 13:13:56;;;;;;;0.88;0.88;;;21.50;65.30;;;;;;5068708;28;20035;-48
2022/06/03 13:16:35;;;;;;;1.00;0.90;;;21.40;65.40;;;;;;5071539;28;20017;-48
2022/06/03 13:19:17;;;;;;;1.17;0.98;;;21.40;66.80;;;;;;5071568;28;20028;-49
2022/06/03 13:21:57;;;;;;;1.00;0.95;;;21.70;64.40;;;;;;5071463;28;20035;-50
2022/06/03 13:24:30;;;;;;;0.88;0.88;;;21.80;67.10;;;;;;5050856;28;20033;-51
2022/06/03 13:26:58;;;;;;;1.98;0.90;;;22.10;69.70;;;;;;5071790;28;20032;-50
2022/06/03 13:29:44;;;;;;;1.52;0.90;;;22.40;69.20;;;;;;5071760;28;20479;-48
2022/06/03 13:32:35;;;;;;;1.20;0.80;;;22.60;66.90;;;;;;5023015;28;20040;-50
2022/06/03 13:35:06;;;;;;;1.88;1.33;;;22.70;68.00;;;;;;5069683;28;20538;-47
2022/06/03 13:37:49;;;;;;;2.10;1.13;;;22.80;66.90;;;;;;5071310;28;20081;-48
2022/06/03 13:40:24;;;;;;;2.58;0.90;;;22.80;65.00;;;;;;5071523;28;20099;-48
2022/06/03 13:42:59;;;;;;;1.23;0.90;;;22.90;64.60;;;;;;5070774;28;20103;-52
2022/06/03 13:45:46;;;;;;;1.67;0.65;;;22.90;64.00;;;;;;5071216;28;20024;-48
2022/06/03 13:48:35;;;;;;;2.80;1.20;;;22.70;64.80;;;;;;5070931;28;20044;-51
2022/06/03 13:51:27;;;;;;;1.77;0.90;;;22.80;64.60;;;;;;5071081;28;20180;-48
2022/06/03 13:54:04;;;;;;;4.13;1.00;;;22.90;63.60;;;;;;5068019;28;20024;-48
2022/06/03 13:56:31;;;;;;;1.95;1.13;;;23.00;64.60;;;;;;5070904;28;20068;-49
2022/06/03 13:58:59;;;;;;;2.35;1.20;;;23.00;64.50;;;;;;5070898;28;20025;-48
2022/06/03 14:01:29;;;;;;;1.05;0.95;;;23.10;62.80;;;;;;5070868;28;20069;-48
2022/06/03 14:04:06;;;;;;;1.05;0.85;;;23.10;64.90;;;;;;5068391;28;20025;-48
2022/06/03 14:06:41;;;;;;;3.17;1.60;;;23.10;62.60;;;;;;5071257;28;20024;-48
2022/06/03 14:09:29;;;;;;;1.63;0.90;;;22.90;61.90;;;;;;5069760;28;20028;-53
2022/06/03 14:12:09;;;;;;;1.63;0.90;;;22.70;61.60;;;;;;5070276;28;20025;-51
2022/06/03 14:14:56;;;;;;;1.00;0.88;;;22.60;63.60;;;;;;5070403;28;20023;-54
2022/06/03 14:17:45;;;;;;;2.05;1.00;;;22.70;64.80;;;;;;5069281;28;20016;-52
2022/06/03 14:20:20;;;;;;;1.15;0.90;;;22.80;63.70;;;;;;5070347;28;20656;-54
2022/06/03 14:23:01;;;;;;;0.73;0.70;;;22.90;64.40;;;;;;5047819;28;20036;-54
2022/06/03 14:25:52;;;;;;;3.03;1.17;;;23.10;66.70;;;;;;5063122;28;20028;-53
2022/06/03 14:28:28;;;;;;;0.90;0.80;;;23.10;63.30;;;;;;5062805;28;20021;-50
2022/06/03 14:31:09;;;;;;;2.50;1.35;;;23.20;66.30;;;;;;5070210;28;20108;-49